Time;durP1;ratioP1;P1;durP2;ratioP2;P2;SDS_P1;SDS_P2;PMS_P1;PMS_P2;Temp;Humidity;BMP_temperature;BMP_pressure;BME280_temperature;BME280_humidity;BME280_pressure;Samples;Min_cycle;Max_cycle;Signal;HPM_P1;HPM_P2
2023/06/29 06:54:29;;;;;;;;;36.25;32.50;;;;;23.26;53.95;101221.16;5070226;27;45929;-80
2023/06/29 06:56:55;;;;;;;;;37.75;33.25;;;;;23.41;53.85;101220.63;5065186;28;45645;-80
2023/06/29 06:59:20;;;;;;;;;37.50;32.00;;;;;23.57;53.46;101214.50;5062304;28;45505;-77
2023/06/29 07:01:45;;;;;;;;;40.75;35.25;;;;;23.73;52.81;101216.47;5067990;28;48598;-77
2023/06/29 07:04:11;;;;;;;;;41.00;34.75;;;;;23.88;52.50;101214.06;5064124;28;56249;-78
2023/06/29 07:06:36;;;;;;;;;45.00;33.50;;;;;24.03;52.38;101217.00;5065934;28;45592;-78
2023/06/29 07:09:03;;;;;;;;;41.00;36.00;;;;;24.15;52.08;101209.47;5065666;28;45660;-78
2023/06/29 07:11:28;;;;;;;;;41.75;34.25;;;;;24.29;52.22;101205.31;5067546;28;45484;-78
2023/06/29 07:13:54;;;;;;;;;41.75;34.75;;;;;24.39;51.70;101205.19;5068184;28;45829;-79
2023/06/29 07:16:19;;;;;;;;;36.25;31.75;;;;;24.52;51.74;101207.41;5066970;28;52467;-80
2023/06/29 07:19:08;;;;;;;;;38.50;33.50;;;;;24.63;51.67;101203.56;5068121;28;45786;-83
2023/06/29 07:21:33;;;;;;;;;44.75;36.50;;;;;24.74;51.46;101207.84;5066157;28;46076;-81
2023/06/29 07:23:58;;;;;;;;;40.00;34.25;;;;;24.83;51.75;101208.75;5068752;27;46235;-82
2023/06/29 07:26:24;;;;;;;;;36.00;31.00;;;;;24.90;50.86;101204.34;5054358;27;45826;-81
2023/06/29 07:28:50;;;;;;;;;43.75;32.50;;;;;24.97;51.10;101207.25;5066987;28;46336;-82
2023/06/29 07:31:15;;;;;;;;;38.25;34.00;;;;;24.98;51.27;101198.09;5067422;27;45423;-82
2023/06/29 07:33:41;;;;;;;;;42.75;36.75;;;;;25.11;51.07;101206.59;5068690;28;46056;-81
2023/06/29 07:36:07;;;;;;;;;45.00;35.00;;;;;25.18;50.77;101204.03;5064718;28;45648;-84
2023/06/29 07:38:32;;;;;;;;;37.25;28.50;;;;;25.23;50.65;101198.09;5066280;27;45484;-91
2023/06/29 07:40:58;;;;;;;;;40.50;33.00;;;;;25.27;50.10;101199.47;5058903;27;45582;-83
2023/06/29 07:43:23;;;;;;;;;36.50;30.75;;;;;25.28;50.08;101193.00;5067731;28;47133;-81
2023/06/29 07:45:48;;;;;;;;;37.75;33.00;;;;;25.32;50.13;101190.78;5054208;28;45362;-84
2023/06/29 07:48:14;;;;;;;;;36.25;31.00;;;;;25.36;50.10;101195.75;5066757;28;45889;-81
2023/06/29 07:50:39;;;;;;;;;42.00;32.75;;;;;25.43;49.82;101198.63;5066535;27;45602;-79
2023/06/29 07:53:04;;;;;;;;;37.00;32.00;;;;;25.46;49.96;101200.97;5082313;27;52007;-80
2023/06/29 07:55:30;;;;;;;;;30.00;27.25;;;;;25.50;50.22;101187.94;5066950;27;48630;-80
2023/06/29 07:57:55;;;;;;;;;32.50;30.25;;;;;25.54;49.48;101194.69;5053461;28;45368;-84
2023/06/29 08:00:21;;;;;;;;;40.75;30.25;;;;;25.56;49.58;101186.41;5063910;27;45492;-80
2023/06/29 08:02:49;;;;;;;;;34.75;30.00;;;;;25.59;49.84;101183.34;5064589;28;46547;-81
2023/06/29 08:05:15;;;;;;;;;39.00;31.75;;;;;25.60;49.24;101193.19;5055333;27;45571;-80
2023/06/29 08:07:41;;;;;;;;;30.75;27.50;;;;;25.64;49.69;101191.84;5054081;28;45831;-83
2023/06/29 08:10:07;;;;;;;;;32.00;29.50;;;;;25.65;49.31;101188.09;5051040;28;45410;-84
2023/06/29 08:12:32;;;;;;;;;31.00;29.50;;;;;25.68;49.53;101192.34;5050920;28;47431;-83
2023/06/29 08:14:58;;;;;;;;;31.25;30.00;;;;;25.71;49.00;101181.13;5048830;28;45634;-81
2023/06/29 08:17:23;;;;;;;;;35.25;27.75;;;;;25.70;49.12;101177.53;5048279;28;45549;-81
2023/06/29 08:19:48;;;;;;;;;36.25;30.00;;;;;25.73;48.88;101170.91;5045565;28;45553;-80
2023/06/29 08:22:13;;;;;;;;;35.25;29.75;;;;;25.73;48.74;101171.78;5054641;28;50399;-81
2023/06/29 08:24:39;;;;;;;;;31.75;29.00;;;;;25.77;48.68;101177.72;5045042;28;48842;-82
2023/06/29 08:27:04;;;;;;;;;32.67;28.33;;;;;25.78;49.01;101173.97;5049317;28;60117;-81
2023/06/29 08:29:30;;;;;;;;;28.25;28.00;;;;;25.78;49.00;101176.69;5051389;28;45622;-82
2023/06/29 08:31:55;;;;;;;;;35.00;30.75;;;;;25.76;48.75;101174.13;5053949;28;48551;-81
2023/06/29 08:34:20;;;;;;;;;39.00;31.00;;;;;25.79;49.23;101176.50;5044744;28;45590;-80
2023/06/29 08:36:46;;;;;;;;;33.50;27.00;;;;;25.79;47.98;101181.94;5054294;28;45607;-83
2023/06/29 08:39:11;;;;;;;;;30.33;26.67;;;;;25.75;48.13;101171.59;5049209;28;51370;-81
2023/06/29 08:41:36;;;;;;;;;38.33;31.00;;;;;25.79;48.20;101186.56;5050397;28;48075;-84
2023/06/29 08:44:04;;;;;;;;;28.67;26.67;;;;;25.82;48.71;101182.63;5047213;28;45612;-85
2023/06/29 08:46:31;;;;;;;;;27.00;27.00;;;;;25.84;48.60;101183.31;5054118;28;45426;-86
2023/06/29 08:48:56;;;;;;;;;31.67;29.00;;;;;25.87;48.64;101186.50;5055695;28;45470;-84
2023/06/29 08:51:22;;;;;;;;;38.25;29.00;;;;;25.88;49.07;101180.03;5043713;28;46381;-82
2023/06/29 08:53:49;;;;;;;;;28.33;26.33;;;;;25.91;48.51;101179.72;5045088;28;45400;-82
2023/06/29 08:56:16;;;;;;;;;24.00;20.33;;;;;25.94;48.33;101177.69;5051043;28;45649;-83
2023/06/29 08:58:42;;;;;;;;;32.00;27.33;;;;;25.96;48.30;101179.19;5038982;28;45526;-82
2023/06/29 09:01:08;;;;;;;;;34.33;29.33;;;;;25.98;48.58;101174.44;5053655;28;46530;-79
2023/06/29 09:03:35;;;;;;;;;24.67;23.33;;;;;25.99;48.63;101173.41;5050521;28;45445;-80
2023/06/29 09:06:03;;;;;;;;;33.00;28.00;;;;;26.01;48.43;101174.09;5062112;28;45610;-80
2023/06/29 09:08:28;;;;;;;;;33.67;30.33;;;;;26.02;48.88;101178.50;5039811;28;45527;-82
2023/06/29 09:10:54;;;;;;;;;27.00;25.33;;;;;26.02;48.19;101173.06;5047444;28;46123;-82
2023/06/29 09:13:24;;;;;;;;;31.00;27.67;;;;;26.04;48.83;101171.00;5047144;28;45703;-85
2023/06/29 09:15:53;;;;;;;;;32.67;27.00;;;;;26.08;48.21;101171.50;5055668;28;45643;-83
2023/06/29 09:18:24;;;;;;;;;33.00;30.67;;;;;26.10;48.43;101169.44;5051874;28;45669;-83
2023/06/29 09:20:54;;;;;;;;;23.67;23.67;;;;;26.13;48.27;101168.25;5051131;28;46556;-83
2023/06/29 09:23:20;;;;;;;;;29.67;26.67;;;;;26.14;47.95;101159.94;5038360;28;45569;-82
2023/06/29 09:25:49;;;;;;;;;32.00;27.67;;;;;26.15;48.17;101161.63;5041987;28;45523;-82
2023/06/29 09:28:15;;;;;;;;;27.00;25.00;;;;;26.18;47.82;101169.44;5041982;28;46125;-84
2023/06/29 09:30:41;;;;;;;;;28.33;25.67;;;;;26.21;48.31;101165.50;5045570;28;45984;-84
2023/06/29 09:33:14;;;;;;;;;28.00;25.67;;;;;26.24;48.10;101167.03;5061158;28;45474;-83
2023/06/29 09:35:43;;;;;;;;;31.67;28.00;;;;;26.24;48.22;101165.13;5051938;28;45572;-84
2023/06/29 09:38:09;;;;;;;;;30.33;28.33;;;;;26.26;48.34;101167.72;5052583;28;45483;-83
2023/06/29 09:40:53;;;;;;;;;29.67;25.67;;;;;26.26;48.56;101174.03;5048133;28;47175;-83
2023/06/29 09:43:28;;;;;;;;;28.33;25.00;;;;;26.26;47.74;101179.47;5049253;28;45441;-85
2023/06/29 09:46:02;;;;;;;;;28.33;25.67;;;;;26.28;48.16;101171.94;5039803;28;45485;-84
2023/06/29 09:48:28;;;;;;;;;28.33;27.00;;;;;26.31;47.59;101171.63;5056040;28;45467;-82
2023/06/29 09:50:54;;;;;;;;;28.00;27.67;;;;;26.33;47.73;101168.72;5037654;28;45544;-82
2023/06/29 09:53:32;;;;;;;;;29.00;25.00;;;;;26.35;47.75;101172.09;5034304;28;46033;-84
2023/06/29 09:56:02;;;;;;;;;32.67;28.00;;;;;26.37;47.36;101172.78;5042616;28;45639;-83
2023/06/29 09:58:29;;;;;;;;;28.67;26.67;;;;;26.40;48.10;101166.97;5034640;28;45616;-82
2023/06/29 10:00:58;;;;;;;;;30.00;28.67;;;;;26.43;47.44;101168.47;5051512;28;46031;-84
2023/06/29 10:03:26;;;;;;;;;29.00;26.33;;;;;26.45;46.83;101169.16;5038840;28;45806;-81
2023/06/29 10:05:57;;;;;;;;;29.67;26.67;;;;;26.47;47.71;101163.53;5041847;28;45563;-80
2023/06/29 10:08:27;;;;;;;;;27.33;23.67;;;;;26.49;47.57;101166.94;5051843;28;45482;-82
2023/06/29 10:11:00;;;;;;;;;30.67;24.33;;;;;26.50;46.92;101165.91;5062237;28;47174;-82
2023/06/29 10:13:26;;;;;;;;;28.33;24.33;;;;;26.50;47.35;101164.03;5047708;28;45447;-81
2023/06/29 10:15:53;;;;;;;;;30.00;25.67;;;;;26.52;46.89;101163.88;5047428;28;45821;-81
2023/06/29 10:18:32;;;;;;;;;26.67;26.00;;;;;26.53;47.08;101165.56;5050016;28;45325;-82
2023/06/29 10:20:57;;;;;;;;;28.00;24.33;;;;;26.55;47.09;101168.94;5045022;28;47266;-82
2023/06/29 10:23:24;;;;;;;;;37.33;30.33;;;;;26.55;46.57;101172.50;5047165;28;45596;-82
2023/06/29 10:25:51;;;;;;;;;22.33;21.33;;;;;26.55;46.93;101167.06;5039006;28;45610;-82
2023/06/29 10:28:18;;;;;;;;;33.00;27.67;;;;;26.58;46.83;101171.31;5042463;28;45683;-82
2023/06/29 10:30:48;;;;;;;;;26.00;25.67;;;;;26.58;47.04;101174.03;5043476;28;46408;-83
2023/06/29 10:33:20;;;;;;;;;30.00;26.00;;;;;26.58;47.21;101176.75;5049144;28;45510;-83
2023/06/29 10:36:13;;;;;;;;;28.33;23.67;;;;;26.59;46.30;101167.56;5049515;28;45450;-82
2023/06/29 10:38:38;;;;;;;;;28.67;28.00;;;;;26.58;46.48;101166.69;5035223;28;45582;-81
2023/06/29 10:41:05;;;;;;;;;27.33;24.33;;;;;26.59;46.92;101159.38;5039160;28;47324;-81
2023/06/29 10:44:00;;;;;;;;;24.33;22.00;;;;;26.60;46.64;101171.13;5039335;28;45898;-82
2023/06/29 10:46:46;;;;;;;;;35.00;30.33;;;;;26.60;46.53;101171.13;5035587;28;45554;-81
2023/06/29 10:49:24;;;;;;;;;31.00;27.00;;;;;26.60;46.76;101177.41;5040639;28;45464;-82
2023/06/29 10:51:55;;;;;;;;;30.00;29.00;;;;;26.60;46.67;101165.69;5040114;28;47537;-85
2023/06/29 10:54:24;;;;;;;;;29.33;26.33;;;;;26.62;47.26;101171.78;5037754;28;47138;-85
2023/06/29 10:57:06;;;;;;;;;32.33;28.33;;;;;26.62;47.10;101166.34;5046830;28;45578;-85
2023/06/29 10:59:33;;;;;;;;;32.00;28.67;;;;;26.62;47.32;101167.22;5056292;28;45560;-85
2023/06/29 11:01:59;;;;;;;;;34.00;28.33;;;;;26.64;46.52;101172.47;5063280;28;46244;-87
2023/06/29 11:04:24;;;;;;;;;31.00;28.00;;;;;26.64;47.22;101159.69;5045078;28;45459;-89
2023/06/29 11:06:50;;;;;;;;;36.67;30.00;;;;;26.64;47.07;101156.16;5045732;28;45488;-84
2023/06/29 11:09:15;;;;;;;;;31.33;28.00;;;;;26.66;46.94;101159.53;5042028;28;45886;-84
2023/06/29 11:11:48;;;;;;;;;28.67;25.67;;;;;26.68;46.66;101160.19;5039741;28;46243;-85
2023/06/29 11:14:14;;;;;;;;;30.33;28.33;;;;;26.68;46.34;101155.59;5035759;28;45430;-87
2023/06/29 11:16:40;;;;;;;;;29.33;27.33;;;;;26.70;46.79;101155.41;5042013;28;45619;-90
2023/06/29 11:19:06;;;;;;;;;26.33;24.67;;;;;26.73;47.13;101151.47;5034604;28;45550;-87
2023/06/29 11:21:32;;;;;;;;;32.67;26.00;;;;;26.73;47.06;101148.75;5036495;28;45557;-86
2023/06/29 11:23:57;;;;;;;;;32.67;30.00;;;;;26.76;46.51;101151.13;5043311;28;45464;-87
2023/06/29 11:26:23;;;;;;;;;34.67;31.67;;;;;26.76;46.23;101151.13;5036312;28;45765;-85
2023/06/29 11:28:49;;;;;;;;;30.67;28.67;;;;;26.76;46.76;101151.97;5041452;28;45654;-87
2023/06/29 11:31:19;;;;;;;;;33.67;28.33;;;;;26.77;46.43;101156.38;5049528;28;48189;-87
2023/06/29 11:33:51;;;;;;;;;31.33;28.67;;;;;26.78;47.31;101149.06;5040621;28;45497;-81
2023/06/29 11:36:27;;;;;;;;;34.33;30.33;;;;;26.78;47.22;101140.91;5050081;28;45545;-84
2023/06/29 11:39:10;;;;;;;;;34.67;30.33;;;;;26.80;46.88;101150.56;5038196;28;45871;-83
2023/06/29 11:41:36;;;;;;;;;37.00;31.33;;;;;26.83;46.97;101144.78;5051613;28;45621;-84
2023/06/29 11:44:02;;;;;;;;;37.67;32.67;;;;;26.85;46.77;101144.56;5051880;28;45446;-83
2023/06/29 11:46:32;;;;;;;;;36.67;30.33;;;;;26.85;46.78;101150.00;5054160;28;45483;-87
2023/06/29 11:48:57;;;;;;;;;36.00;31.67;;;;;26.86;46.34;101137.25;5047512;28;45395;-84
2023/06/29 11:51:28;;;;;;;;;35.67;30.33;;;;;26.87;46.31;101136.22;5048791;28;46684;-84
2023/06/29 11:53:54;;;;;;;;;33.67;30.33;;;;;26.91;46.60;101134.84;5050616;28;45499;-80
2023/06/29 11:56:28;;;;;;;;;40.00;32.33;;;;;26.91;46.54;101124.81;5050403;28;45452;-81
2023/06/29 11:58:55;;;;;;;;;36.00;33.33;;;;;26.93;45.92;101130.06;5043344;28;45507;-80
2023/06/29 12:01:20;;;;;;;;;35.67;32.67;;;;;26.93;45.62;101133.66;5046177;28;46248;-75
2023/06/29 12:03:49;;;;;;;;;43.33;35.67;;;;;26.95;46.15;101136.19;5054264;28;45822;-79
2023/06/29 12:06:14;;;;;;;;;37.67;31.67;;;;;26.98;45.74;101141.28;5052061;28;45455;-82
2023/06/29 12:08:40;;;;;;;;;33.25;30.25;;;;;27.00;45.96;101136.50;5054040;28;45513;-80
2023/06/29 12:11:06;;;;;;;;;35.75;32.00;;;;;27.01;46.11;101134.63;5057299;27;45329;-81
2023/06/29 12:13:31;;;;;;;;;37.75;30.75;;;;;27.00;45.65;101139.22;5043680;28;46223;-82
2023/06/29 12:16:01;;;;;;;;;38.67;33.67;;;;;26.99;45.80;101128.50;5054515;28;45478;-85
2023/06/29 12:18:28;;;;;;;;;40.25;32.75;;;;;27.02;46.08;101136.31;5051689;28;45450;-90
2023/06/29 12:20:53;;;;;;;;;36.67;32.00;;;;;27.03;45.54;101140.72;5052484;28;45951;-83
2023/06/29 12:23:21;;;;;;;;;37.33;31.00;;;;;27.04;46.02;101137.84;5058241;28;45403;-83
2023/06/29 12:25:48;;;;;;;;;37.67;31.33;;;;;27.04;45.45;101132.38;5061541;28;45430;-83
2023/06/29 12:28:14;;;;;;;;;42.33;34.00;;;;;27.06;45.81;101132.22;5053324;28;45534;-85
2023/06/29 12:30:40;;;;;;;;;42.50;33.00;;;;;27.08;45.88;101132.84;5060188;28;48299;-89
2023/06/29 12:33:06;;;;;;;;;39.67;34.67;;;;;27.09;45.60;101127.22;5047153;28;45455;-83
2023/06/29 12:35:31;;;;;;;;;34.50;32.25;;;;;27.10;45.92;101128.09;5047007;28;45424;-83
2023/06/29 12:37:57;;;;;;;;;34.00;32.00;;;;;27.13;45.29;101129.59;5046825;28;45333;-84
2023/06/29 12:40:23;;;;;;;;;36.00;33.75;;;;;27.12;45.46;101131.47;5053662;28;46028;-84
2023/06/29 12:42:48;;;;;;;;;34.67;31.67;;;;;27.15;45.30;101127.53;5052774;28;45436;-83
2023/06/29 12:45:14;;;;;;;;;29.67;28.67;;;;;27.14;45.99;101126.66;5047465;28;45421;-82
2023/06/29 12:47:41;;;;;;;;;37.25;32.75;;;;;27.16;45.31;101127.34;5046237;28;53805;-82
2023/06/29 12:50:07;;;;;;;;;36.50;31.75;;;;;27.17;45.58;101115.41;5040919;28;46151;-81
2023/06/29 12:52:33;;;;;;;;;37.75;32.25;;;;;27.18;45.47;101114.38;5046805;28;45535;-84
2023/06/29 12:54:58;;;;;;;;;46.00;35.75;;;;;27.19;45.56;101117.97;5052157;28;45404;-81
2023/06/29 12:57:28;;;;;;;;;38.00;32.00;;;;;27.19;45.76;101117.97;5046702;28;45452;-79
2023/06/29 12:59:59;;;;;;;;;39.00;33.00;;;;;27.18;45.23;101108.91;5043154;28;45417;-79
2023/06/29 13:02:26;;;;;;;;;40.00;33.25;;;;;27.20;45.21;101108.75;5048631;28;45492;-80
2023/06/29 13:04:51;;;;;;;;;42.50;34.50;;;;;27.20;45.67;101104.16;5048275;28;46512;-79
2023/06/29 13:07:19;;;;;;;;;48.67;35.67;;;;;27.22;45.29;101104.81;5042748;28;45579;-81
2023/06/29 13:09:47;;;;;;;;;38.75;32.75;;;;;27.22;45.87;101106.69;5047938;28;47201;-77
2023/06/29 13:12:14;;;;;;;;;43.75;35.50;;;;;27.22;45.76;101104.81;5037666;28;46162;-77
2023/06/29 13:14:43;;;;;;;;;41.75;34.25;;;;;27.22;45.20;101099.34;5040525;28;45536;-78
2023/06/29 13:17:10;;;;;;;;;34.25;31.25;;;;;27.23;45.16;101103.75;5047738;28;45743;-78
2023/06/29 13:19:38;;;;;;;;;38.25;34.25;;;;;27.23;45.75;101102.94;5040313;28;46144;-79
2023/06/29 13:22:04;;;;;;;;;37.75;33.50;;;;;27.24;45.16;101101.91;5044981;28;46170;-77
2023/06/29 13:24:31;;;;;;;;;36.50;32.00;;;;;27.23;45.73;101095.59;5044488;28;45562;-80
2023/06/29 13:26:56;;;;;;;;;39.00;32.25;;;;;27.25;45.27;101092.69;5043996;28;45515;-82
2023/06/29 13:29:21;;;;;;;;;39.75;34.75;;;;;27.27;45.70;101095.22;5040223;28;46246;-82
2023/06/29 13:31:47;;;;;;;;;34.25;31.50;;;;;27.26;45.32;101079.91;5045279;28;45380;-78
2023/06/29 13:34:13;;;;;;;;;43.75;34.75;;;;;27.30;45.64;101081.25;5045226;28;45458;-78
2023/06/29 13:36:38;;;;;;;;;38.00;33.67;;;;;27.30;45.34;101086.69;5045602;28;45477;-81
2023/06/29 13:39:04;;;;;;;;;38.75;32.25;;;;;27.30;45.57;101083.97;5045148;28;47039;-83
2023/06/29 13:41:40;;;;;;;;;32.25;30.25;;;;;27.29;45.00;101083.13;5044894;28;45620;-81
2023/06/29 13:44:08;;;;;;;;;39.75;33.25;;;;;27.29;45.35;101079.53;5037921;28;45769;-81
2023/06/29 13:46:34;;;;;;;;;41.00;35.25;;;;;27.30;45.25;101082.06;5036447;28;45714;-80
2023/06/29 13:49:00;;;;;;;;;44.00;34.75;;;;;27.28;44.72;101081.44;5046920;28;45595;-81
2023/06/29 13:51:28;;;;;;;;;43.75;34.75;;;;;27.30;44.37;101092.97;5051493;28;45514;-81
2023/06/29 13:53:53;;;;;;;;;38.25;34.00;;;;;27.29;44.46;101087.69;5039402;28;45471;-81
2023/06/29 13:56:18;;;;;;;;;40.25;33.75;;;;;27.30;44.66;101086.69;5041668;28;45491;-80
2023/06/29 13:58:44;;;;;;;;;37.67;32.67;;;;;27.28;44.69;101088.75;5043662;28;46383;-81
2023/06/29 14:01:09;;;;;;;;;37.33;32.33;;;;;27.27;44.00;101098.81;5037754;28;45468;-81
2023/06/29 14:03:34;;;;;;;;;43.00;33.75;;;;;27.26;43.94;101102.53;5050615;28;45537;-81
2023/06/29 14:06:00;;;;;;;;;40.00;33.67;;;;;27.26;44.56;101099.81;5066061;28;48284;-81
2023/06/29 14:08:25;;;;;;;;;33.75;30.25;;;;;27.24;44.11;101096.44;5047656;28;52889;-81
2023/06/29 14:10:50;;;;;;;;;34.50;30.50;;;;;27.23;44.24;101092.03;5050180;28;45674;-81
2023/06/29 14:13:16;;;;;;;;;40.00;33.25;;;;;27.21;43.83;101094.94;5050257;28;48182;-81
2023/06/29 14:15:41;;;;;;;;;40.67;32.33;;;;;27.21;44.16;101094.94;5039633;28;45592;-81
2023/06/29 14:18:06;;;;;;;;;39.33;35.33;;;;;27.21;43.61;101104.97;5041207;28;49885;-81
2023/06/29 14:20:32;;;;;;;;;37.75;32.75;;;;;27.20;44.24;101109.59;5039553;28;45986;-81
2023/06/29 14:22:58;;;;;;;;;39.67;32.00;;;;;27.19;43.60;101104.34;5044850;28;46917;-80
2023/06/29 14:25:23;;;;;;;;;39.25;32.75;;;;;27.19;43.81;101104.34;5038530;28;45566;-82
2023/06/29 14:27:49;;;;;;;;;37.33;32.33;;;;;27.19;43.86;101112.50;5041497;28;46196;-84
2023/06/29 14:30:14;;;;;;;;;41.33;33.00;;;;;27.18;44.10;101114.38;5042054;28;45660;-80
2023/06/29 14:32:40;;;;;;;;;31.67;29.67;;;;;27.17;44.53;101106.38;5038248;28;45545;-77
2023/06/29 14:35:05;;;;;;;;;32.33;29.33;;;;;27.17;44.43;101117.28;5055083;28;45459;-83
2023/06/29 14:37:31;;;;;;;;;44.00;33.25;;;;;27.18;44.80;101124.44;5035432;28;45650;-78
2023/06/29 14:39:57;;;;;;;;;37.67;32.67;;;;;27.18;44.78;101119.81;5043110;28;45394;-77
2023/06/29 14:42:22;;;;;;;;;39.33;31.67;;;;;27.18;44.63;101116.28;5047530;28;45429;-78
2023/06/29 14:44:47;;;;;;;;;36.33;30.33;;;;;27.20;44.13;101131.41;5043900;28;45667;-77
2023/06/29 14:47:13;;;;;;;;;37.33;31.67;;;;;27.20;44.52;101111.47;5033610;28;46276;-78
2023/06/29 14:49:38;;;;;;;;;41.00;32.67;;;;;27.20;44.29;101134.13;5043322;28;45630;-79
2023/06/29 14:52:03;;;;;;;;;39.00;33.33;;;;;27.22;44.98;101126.59;5037730;28;46757;-77
2023/06/29 14:54:29;;;;;;;;;34.33;32.00;;;;;27.23;44.88;101135.63;5047102;28;45580;-78
2023/06/29 14:56:54;;;;;;;;;31.67;28.67;;;;;27.25;44.45;101122.66;5038934;28;46743;-77
2023/06/29 14:59:20;;;;;;;;;33.33;30.33;;;;;27.24;44.88;101129.16;5034837;28;50022;-77
2023/06/29 15:01:46;;;;;;;;;29.67;26.33;;;;;27.26;44.49;101128.97;5044990;28;45470;-78
2023/06/29 15:04:11;;;;;;;;;33.67;28.67;;;;;27.27;44.27;101133.38;5032779;28;45632;-79
2023/06/29 15:06:36;;;;;;;;;38.00;31.67;;;;;27.27;44.43;101127.94;5045639;28;46283;-77
2023/06/29 15:09:02;;;;;;;;;31.67;28.67;;;;;27.28;44.21;101126.88;5036282;28;45475;-78
2023/06/29 15:11:27;;;;;;;;;33.67;30.67;;;;;27.27;44.38;101131.50;5033731;28;45934;-78
2023/06/29 15:13:53;;;;;;;;;31.33;29.67;;;;;27.29;45.01;101134.88;5050482;28;61064;-79
2023/06/29 15:16:19;;;;;;;;;31.33;28.67;;;;;27.28;44.34;101127.75;5046341;28;45888;-78
2023/06/29 15:18:44;;;;;;;;;36.00;27.67;;;;;27.29;44.17;101131.31;5040618;28;45598;-79
2023/06/29 15:21:10;;;;;;;;;34.00;28.33;;;;;27.31;44.49;101135.56;5042349;28;45839;-79
2023/06/29 15:23:36;;;;;;;;;33.00;28.00;;;;;27.30;44.03;101120.22;5067351;28;45648;-81
2023/06/29 15:26:01;;;;;;;;;31.00;26.67;;;;;27.29;44.11;101117.69;5040775;28;45486;-77
2023/06/29 15:28:26;;;;;;;;;32.00;30.00;;;;;27.31;43.95;101121.94;5040867;28;45478;-76
2023/06/29 15:30:52;;;;;;;;;30.67;29.67;;;;;27.31;44.23;101116.50;5047469;28;45558;-76
2023/06/29 15:33:17;;;;;;;;;26.00;23.00;;;;;27.32;44.39;101115.44;5048005;28;45491;-77
2023/06/29 15:35:42;;;;;;;;;31.33;30.00;;;;;27.32;44.16;101120.03;5040020;28;47062;-76
2023/06/29 15:38:08;;;;;;;;;29.00;25.67;;;;;27.34;43.81;101116.09;5041798;28;45683;-77
2023/06/29 15:40:33;;;;;;;;;29.33;26.67;;;;;27.35;44.36;101117.78;5039034;28;45971;-81
2023/06/29 15:42:58;;;;;;;;;30.00;25.67;;;;;27.34;44.48;101107.09;5046745;28;45427;-82
2023/06/29 15:45:24;;;;;;;;;26.33;23.00;;;;;27.32;43.88;101110.00;5043182;28;45370;-80
2023/06/29 15:47:49;;;;;;;;;25.00;24.33;;;;;27.32;43.89;101109.16;5051776;28;45343;-80
2023/06/29 15:50:15;;;;;;;;;21.33;21.33;;;;;27.32;43.95;101122.78;5054911;28;45301;-82
2023/06/29 15:52:40;;;;;;;;;24.00;21.67;;;;;27.31;43.55;101131.97;5043687;28;45601;-81
2023/06/29 15:55:06;;;;;;;;;25.33;25.33;;;;;27.31;44.10;101132.84;5040872;28;45891;-83
2023/06/29 15:57:31;;;;;;;;;28.00;26.00;;;;;27.29;43.70;101131.31;5038413;28;45595;-84
2023/06/29 15:59:57;;;;;;;;;27.33;26.00;;;;;27.30;44.23;101143.91;5047507;28;45420;-83
2023/06/29 16:02:22;;;;;;;;;29.67;27.00;;;;;27.28;44.36;101141.38;5054315;28;45498;-84
2023/06/29 16:04:47;;;;;;;;;21.00;20.00;;;;;27.27;44.35;101144.28;5054207;28;45526;-82
2023/06/29 16:07:13;;;;;;;;;24.00;23.00;;;;;27.25;43.56;101147.19;5041987;28;45783;-83
2023/06/29 16:09:38;;;;;;;;;19.67;19.00;;;;;27.25;43.74;101157.25;5052659;28;45714;-83
2023/06/29 16:12:05;;;;;;;;;22.33;21.33;;;;;27.22;44.20;101156.56;5049859;28;47751;-82
2023/06/29 16:14:30;;;;;;;;;23.33;19.67;;;;;27.20;43.99;101147.75;5054380;28;45525;-82
2023/06/29 16:16:56;;;;;;;;;27.00;23.67;;;;;27.21;44.31;101149.44;5054150;28;45561;-82
2023/06/29 16:19:21;;;;;;;;;21.33;20.67;;;;;27.18;44.49;101147.06;5053249;28;45484;-82
2023/06/29 16:21:47;;;;;;;;;26.33;23.33;;;;;27.17;44.08;101141.78;5051400;28;45903;-82
2023/06/29 16:24:12;;;;;;;;;24.33;21.33;;;;;27.16;44.03;101151.88;5053915;28;46606;-83
2023/06/29 16:26:38;;;;;;;;;20.00;18.33;;;;;27.16;44.42;101151.88;5040528;28;45482;-83
2023/06/29 16:29:03;;;;;;;;;23.00;19.00;;;;;27.16;44.21;101151.00;5065408;28;45459;-82
2023/06/29 16:31:29;;;;;;;;;18.67;17.67;;;;;27.16;44.38;101145.56;5045134;28;45827;-81
2023/06/29 16:33:54;;;;;;;;;26.33;21.33;;;;;27.14;45.04;101151.19;5044420;28;45962;-86
2023/06/29 16:36:20;;;;;;;;;24.00;17.67;;;;;27.14;45.26;101142.19;5044989;28;45698;-80
2023/06/29 16:38:45;;;;;;;;;22.00;21.00;;;;;27.12;45.21;101145.09;5045329;28;45398;-78
2023/06/29 16:41:11;;;;;;;;;17.33;15.00;;;;;27.10;44.52;101139.81;5051001;28;45321;-79
2023/06/29 16:43:38;;;;;;;;;20.67;18.67;;;;;27.13;44.69;101140.50;5036587;28;46099;-79
2023/06/29 16:46:03;;;;;;;;;11.67;10.67;;;;;27.08;45.55;101141.03;5043397;28;45632;-80
2023/06/29 16:48:28;;;;;;;;;10.00;10.00;;;;;27.01;45.16;101153.69;5039643;28;45447;-79
2023/06/29 16:50:54;;;;;;;;;9.67;9.00;;;;;26.90;45.51;101142.19;5038725;28;45519;-79
2023/06/29 16:53:19;;;;;;;;;15.67;15.67;;;;;26.82;45.43;101144.94;5033441;28;45782;-81
2023/06/29 16:55:45;;;;;;;;;18.67;17.00;;;;;26.78;45.88;101151.78;5050991;28;45636;-80
2023/06/29 16:58:10;;;;;;;;;14.00;12.00;;;;;26.75;46.26;101158.44;5040453;28;45521;-79
2023/06/29 17:00:35;;;;;;;;;14.00;12.33;;;;;26.70;46.12;101161.69;5045589;28;45520;-76
2023/06/29 17:03:00;;;;;;;;;15.67;10.67;;;;;26.66;46.39;101156.78;5044444;28;50998;-77
2023/06/29 17:05:26;;;;;;;;;16.00;12.00;;;;;26.63;46.04;101162.59;5050494;28;45452;-76
2023/06/29 17:07:52;;;;;;;;;14.00;10.00;;;;;26.58;46.52;101153.09;5043948;28;45487;-77
2023/06/29 17:10:18;;;;;;;;;9.00;7.00;;;;;26.57;46.92;101158.72;5048737;28;45346;-75
2023/06/29 17:12:43;;;;;;;;;8.00;8.00;;;;;26.54;46.46;101161.81;5045851;28;45888;-76
2023/06/29 17:15:09;;;;;;;;;8.00;8.00;;;;;26.53;46.25;101157.38;5048259;28;45499;-76
2023/06/29 17:17:34;;;;;;;;;7.67;6.00;;;;;26.50;46.66;101161.31;5040521;28;45531;-76
2023/06/29 17:20:00;;;;;;;;;8.33;8.33;;;;;26.48;46.90;101154.34;5042869;28;45393;-76
2023/06/29 17:22:25;;;;;;;;;6.67;5.33;;;;;26.44;46.89;101148.41;5038782;28;52631;-77
2023/06/29 17:24:52;;;;;;;;;6.33;6.00;;;;;26.42;46.89;101151.31;5041874;28;45505;-76
2023/06/29 17:27:17;;;;;;;;;7.00;7.00;;;;;26.39;46.95;101148.09;5043829;28;51258;-76
2023/06/29 17:29:47;;;;;;;;;7.67;5.00;;;;;26.37;46.39;101153.75;5050453;28;45687;-76
2023/06/29 17:32:12;;;;;;;;;6.67;6.67;;;;;26.36;47.08;101157.47;5036418;28;45967;-77
2023/06/29 17:34:38;;;;;;;;;5.00;5.00;;;;;26.34;46.53;101154.09;5041292;28;45414;-77
2023/06/29 17:37:03;;;;;;;;;5.00;5.00;;;;;26.31;47.04;101154.44;5036398;28;45381;-77
2023/06/29 17:39:29;;;;;;;;;6.00;6.00;;;;;26.27;47.00;101159.38;5046066;28;45418;-78
2023/06/29 17:41:54;;;;;;;;;3.00;3.00;;;;;26.22;46.72;101152.72;5045169;28;45543;-81
2023/06/29 17:44:20;;;;;;;;;5.00;5.00;;;;;26.21;46.81;101153.78;5043896;28;45325;-78
2023/06/29 17:46:45;;;;;;;;;4.00;4.00;;;;;26.19;46.65;101159.38;5044513;28;47498;-77
2023/06/29 17:49:10;;;;;;;;;3.67;3.00;;;;;26.16;46.77;101151.59;5039776;28;47426;-82
2023/06/29 17:51:36;;;;;;;;;2.00;2.00;;;;;26.16;46.98;101157.03;5041051;28;45498;-84
2023/06/29 17:54:03;;;;;;;;;5.67;4.00;;;;;26.16;47.02;101165.19;5040339;28;45374;-82
2023/06/29 17:56:28;;;;;;;;;5.33;5.00;;;;;26.13;46.79;101157.38;5040026;28;45448;-83
2023/06/29 17:58:53;;;;;;;;;4.67;4.67;;;;;26.12;46.60;101166.56;5039187;28;45470;-82
2023/06/29 18:01:19;;;;;;;;;3.00;3.00;;;;;26.10;46.79;101165.88;5038974;28;45349;-83
2023/06/29 18:03:44;;;;;;;;;4.33;4.33;;;;;26.10;46.46;101176.75;5040855;28;45474;-82